Time;durP1;ratioP1;P1;durP2;ratioP2;P2;SDS_P1;SDS_P2;PMS_P1;PMS_P2;Temp;Humidity;BMP_temperature;BMP_pressure;BME280_temperature;BME280_humidity;BME280_pressure;Samples;Min_cycle;Max_cycle;Signal;HPM_P1;HPM_P2
2024/01/29 00:02:03;;;;;;;1008.20;100.38;;;;;;;;;;4751507;29;20156;-82
2024/01/29 00:04:30;;;;;;;1004.45;99.40;;;;;;;;;;4760451;29;20974;-81
2024/01/29 00:06:58;;;;;;;989.97;98.32;;;;;;;;;;4752768;29;20045;-81
2024/01/29 00:09:25;;;;;;;924.35;92.40;;;;;;;;;;4757727;29;20152;-81
2024/01/29 00:11:52;;;;;;;960.53;94.85;;;;;;;;;;4759049;29;20958;-81
2024/01/29 00:14:19;;;;;;;954.60;91.93;;;;;;;;;;4761773;29;20042;-82
2024/01/29 00:16:46;;;;;;;950.83;91.82;;;;;;;;;;4763342;29;21089;-81
2024/01/29 00:19:13;;;;;;;929.95;89.45;;;;;;;;;;4754420;29;20378;-82
2024/01/29 00:21:40;;;;;;;966.60;92.82;;;;;;;;;;4756020;29;20045;-81
2024/01/29 00:24:07;;;;;;;1016.90;98.28;;;;;;;;;;4753637;29;20049;-81
2024/01/29 00:26:37;;;;;;;984.83;94.45;;;;;;;;;;4756896;29;21179;-81
2024/01/29 00:29:03;;;;;;;1013.70;97.65;;;;;;;;;;4760812;29;20041;-81
2024/01/29 00:31:31;;;;;;;1027.32;99.13;;;;;;;;;;4751856;29;21023;-81
2024/01/29 00:33:58;;;;;;;962.65;91.15;;;;;;;;;;4737550;29;20042;-81
2024/01/29 00:36:25;;;;;;;946.08;89.43;;;;;;;;;;4756144;29;21220;-81
2024/01/29 00:38:52;;;;;;;944.53;88.57;;;;;;;;;;4761184;29;20050;-81
2024/01/29 00:41:18;;;;;;;930.75;87.03;;;;;;;;;;4765073;29;20064;-81
2024/01/29 00:43:45;;;;;;;936.33;89.25;;;;;;;;;;4744184;29;20144;-81
2024/01/29 00:46:12;;;;;;;961.95;90.43;;;;;;;;;;4756208;29;21296;-81
2024/01/29 00:48:39;;;;;;;940.95;88.78;;;;;;;;;;4740168;29;20213;-82
2024/01/29 00:51:06;;;;;;;946.55;89.53;;;;;;;;;;4758855;29;20045;-81
2024/01/29 00:53:32;;;;;;;977.78;92.85;;;;;;;;;;4763238;29;20071;-81
2024/01/29 00:55:59;;;;;;;943.83;89.32;;;;;;;;;;4765175;29;20971;-81
2024/01/29 00:58:26;;;;;;;933.53;87.60;;;;;;;;;;4753583;29;20108;-81
2024/01/29 01:00:52;;;;;;;960.20;91.38;;;;;;;;;;4753918;29;20045;-81
2024/01/29 01:03:19;;;;;;;943.25;88.82;;;;;;;;;;4760112;29;20065;-81
2024/01/29 01:05:46;;;;;;;935.97;88.43;;;;;;;;;;4765290;29;21214;-81
2024/01/29 01:08:13;;;;;;;958.92;91.18;;;;;;;;;;4763384;29;21276;-81
2024/01/29 01:10:40;;;;;;;955.35;90.03;;;;;;;;;;4755294;29;20156;-81
2024/01/29 01:13:06;;;;;;;963.47;92.53;;;;;;;;;;4753810;29;20037;-81
2024/01/29 01:15:33;;;;;;;940.30;89.05;;;;;;;;;;4758472;29;20041;-81
2024/01/29 01:18:00;;;;;;;955.08;91.97;;;;;;;;;;4760640;29;20056;-82
2024/01/29 01:20:27;;;;;;;941.72;89.82;;;;;;;;;;4765120;29;20037;-80
2024/01/29 01:22:53;;;;;;;957.60;92.05;;;;;;;;;;4753796;29;20040;-81
2024/01/29 01:25:20;;;;;;;940.15;89.88;;;;;;;;;;4756462;29;21018;-81
2024/01/29 01:27:47;;;;;;;945.17;90.35;;;;;;;;;;4757147;29;20045;-81
2024/01/29 01:30:14;;;;;;;958.17;91.95;;;;;;;;;;4759354;29;20102;-81
2024/01/29 01:32:40;;;;;;;975.72;93.55;;;;;;;;;;4764314;29;21030;-81
2024/01/29 01:35:07;;;;;;;960.78;91.32;;;;;;;;;;4762429;29;21270;-81
2024/01/29 01:37:34;;;;;;;980.45;94.88;;;;;;;;;;4752648;29;20052;-81
2024/01/29 01:40:00;;;;;;;977.75;94.57;;;;;;;;;;4750918;29;20041;-82
2024/01/29 01:42:27;;;;;;;1016.17;99.20;;;;;;;;;;4754194;29;20841;-81
2024/01/29 01:44:54;;;;;;;1014.70;99.75;;;;;;;;;;4756607;29;20033;-81
2024/01/29 01:47:21;;;;;;;976.22;95.28;;;;;;;;;;4751369;29;20856;-82
2024/01/29 01:49:48;;;;;;;969.25;94.30;;;;;;;;;;4756189;29;20118;-81
2024/01/29 01:52:16;;;;;;;999.40;96.85;;;;;;;;;;4750625;29;20217;-82
2024/01/29 01:54:43;;;;;;;1006.63;97.43;;;;;;;;;;4754219;29;21043;-81
2024/01/29 01:57:09;;;;;;;999.28;97.28;;;;;;;;;;4754679;29;20999;-82
2024/01/29 01:59:37;;;;;;;1006.05;97.15;;;;;;;;;;4755663;29;21035;-81
2024/01/29 02:02:03;;;;;;;1015.70;99.78;;;;;;;;;;4891905;23;20568;-83
2024/01/29 02:04:30;;;;;;;988.17;96.78;;;;;;;;;;4728380;29;20049;-83
2024/01/29 02:06:57;;;;;;;1055.65;103.78;;;;;;;;;;4730217;29;20046;-83
2024/01/29 02:09:25;;;;;;;973.10;93.97;;;;;;;;;;4733047;29;20049;-83
2024/01/29 02:11:51;;;;;;;978.33;94.82;;;;;;;;;;4733519;29;21080;-83
2024/01/29 02:14:18;;;;;;;1027.25;100.50;;;;;;;;;;4724203;29;20132;-83
2024/01/29 02:16:45;;;;;;;1011.83;98.80;;;;;;;;;;4725951;29;20041;-83
2024/01/29 02:19:14;;;;;;;995.22;97.05;;;;;;;;;;4726907;29;21266;-83
2024/01/29 02:21:41;;;;;;;1085.38;108.18;;;;;;;;;;4732749;29;20060;-83
2024/01/29 02:24:08;;;;;;;985.17;96.25;;;;;;;;;;4735426;29;20061;-83
2024/01/29 02:26:34;;;;;;;998.83;97.53;;;;;;;;;;4727710;29;20129;-83
2024/01/29 02:29:01;;;;;;;1050.32;103.10;;;;;;;;;;4711051;29;20056;-83
2024/01/29 02:31:28;;;;;;;1037.00;101.80;;;;;;;;;;4727521;29;20077;-83
2024/01/29 02:33:54;;;;;;;953.08;93.03;;;;;;;;;;4734936;29;20049;-83
2024/01/29 02:36:21;;;;;;;967.30;93.63;;;;;;;;;;4734455;29;20042;-83
2024/01/29 02:38:48;;;;;;;1011.83;98.38;;;;;;;;;;4731115;29;20049;-83
2024/01/29 02:41:14;;;;;;;982.42;96.95;;;;;;;;;;4723271;29;20052;-83
2024/01/29 02:43:42;;;;;;;1042.18;103.57;;;;;;;;;;4727235;29;20037;-83
2024/01/29 02:46:09;;;;;;;1046.50;104.00;;;;;;;;;;4730028;29;20165;-83
2024/01/29 02:48:39;;;;;;;1022.97;100.63;;;;;;;;;;4733668;29;20045;-83
2024/01/29 02:51:06;;;;;;;1085.68;108.03;;;;;;;;;;4736153;29;20056;-83
2024/01/29 02:53:33;;;;;;;1038.35;101.22;;;;;;;;;;4725188;29;20037;-82
2024/01/29 02:56:00;;;;;;;995.63;97.28;;;;;;;;;;4727820;29;21032;-82
2024/01/29 02:58:26;;;;;;;980.90;94.88;;;;;;;;;;4732211;29;20045;-82
2024/01/29 03:00:53;;;;;;;1042.85;103.13;;;;;;;;;;4732962;29;20144;-83
2024/01/29 03:03:20;;;;;;;961.72;93.18;;;;;;;;;;4735582;29;20045;-82
2024/01/29 03:05:47;;;;;;;1045.20;104.25;;;;;;;;;;4727774;29;22047;-82
2024/01/29 03:08:13;;;;;;;1025.63;100.15;;;;;;;;;;4728201;29;20057;-82
2024/01/29 03:10:40;;;;;;;968.92;95.13;;;;;;;;;;4726730;29;21176;-82
2024/01/29 03:13:06;;;;;;;993.78;97.28;;;;;;;;;;4732235;29;20046;-82
2024/01/29 03:15:33;;;;;;;1048.65;103.97;;;;;;;;;;4721335;29;20828;-83
2024/01/29 03:18:00;;;;;;;991.95;97.63;;;;;;;;;;4726830;29;20160;-83
2024/01/29 03:20:27;;;;;;;969.17;94.07;;;;;;;;;;4726782;29;20052;-83
2024/01/29 03:22:53;;;;;;;995.67;97.72;;;;;;;;;;4728673;29;20049;-82
2024/01/29 03:25:20;;;;;;;972.88;94.65;;;;;;;;;;4733438;29;20046;-83
2024/01/29 03:27:47;;;;;;;1016.08;100.13;;;;;;;;;;4736297;29;20073;-83
2024/01/29 03:30:13;;;;;;;1019.75;99.88;;;;;;;;;;4732148;29;20896;-83
2024/01/29 03:32:40;;;;;;;985.65;96.40;;;;;;;;;;4724292;29;20049;-83
2024/01/29 03:35:08;;;;;;;1015.78;98.72;;;;;;;;;;4727952;29;20135;-82
2024/01/29 03:37:34;;;;;;;1040.63;102.47;;;;;;;;;;4728223;29;20038;-83
2024/01/29 03:40:04;;;;;;;971.97;95.15;;;;;;;;;;4732152;29;20038;-83
2024/01/29 03:42:30;;;;;;;1019.60;100.63;;;;;;;;;;4730052;29;21059;-82
2024/01/29 03:44:57;;;;;;;1144.28;113.07;;;;;;;;;;4724925;29;20038;-82
2024/01/29 03:47:24;;;;;;;993.15;97.38;;;;;;;;;;4726511;29;20045;-82
2024/01/29 03:49:51;;;;;;;956.63;91.72;;;;;;;;;;4724802;29;20057;-82
2024/01/29 03:52:19;;;;;;;1139.03;113.95;;;;;;;;;;4731341;29;20042;-83
2024/01/29 03:54:45;;;;;;;997.85;97.03;;;;;;;;;;4729700;29;20046;-83
2024/01/29 03:57:13;;;;;;;972.65;95.35;;;;;;;;;;4723791;29;20053;-82
2024/01/29 03:59:40;;;;;;;1002.25;97.57;;;;;;;;;;4713036;29;20050;-82
2024/01/29 04:02:08;;;;;;;1046.63;102.28;;;;;;;;;;4732103;29;21270;-82
2024/01/29 04:04:35;;;;;;;965.35;93.97;;;;;;;;;;4733950;29;20053;-82
2024/01/29 04:07:01;;;;;;;1063.57;104.90;;;;;;;;;;4737201;29;20068;-82
2024/01/29 04:09:28;;;;;;;1015.47;99.07;;;;;;;;;;4736225;29;20037;-82
2024/01/29 04:11:55;;;;;;;1011.38;98.80;;;;;;;;;;4737589;29;20057;-82
2024/01/29 04:14:22;;;;;;;1028.93;100.30;;;;;;;;;;4740076;29;20513;-82
2024/01/29 04:16:49;;;;;;;1041.78;102.32;;;;;;;;;;4739542;29;20389;-82
2024/01/29 04:19:17;;;;;;;1032.60;100.57;;;;;;;;;;4728039;29;20053;-82
2024/01/29 04:21:44;;;;;;;986.83;96.43;;;;;;;;;;4739461;29;20063;-83
2024/01/29 04:24:11;;;;;;;1095.63;109.38;;;;;;;;;;4738701;29;20041;-82
2024/01/29 04:26:39;;;;;;;1071.60;105.30;;;;;;;;;;4740054;29;20110;-83
2024/01/29 04:29:05;;;;;;;1026.68;100.85;;;;;;;;;;4740845;29;20956;-82
2024/01/29 04:31:32;;;;;;;1051.80;103.53;;;;;;;;;;4733911;29;21023;-83
2024/01/29 04:33:59;;;;;;;978.63;94.88;;;;;;;;;;4739368;29;20065;-82
2024/01/29 04:36:26;;;;;;;988.78;96.32;;;;;;;;;;4738264;29;20046;-82
2024/01/29 04:38:52;;;;;;;1052.65;104.53;;;;;;;;;;4737706;29;20986;-82
2024/01/29 04:41:19;;;;;;;983.08;95.63;;;;;;;;;;4740707;29;20052;-82
2024/01/29 04:43:46;;;;;;;1064.40;104.95;;;;;;;;;;4737870;29;20992;-82
2024/01/29 04:46:13;;;;;;;1068.93;106.50;;;;;;;;;;4740533;29;21019;-82
2024/01/29 04:48:40;;;;;;;1017.38;99.57;;;;;;;;;;4740385;29;20052;-82
2024/01/29 04:51:07;;;;;;;1031.13;101.35;;;;;;;;;;4736380;29;20042;-82
2024/01/29 04:53:35;;;;;;;1019.25;98.82;;;;;;;;;;4739649;29;20937;-83
2024/01/29 04:56:05;;;;;;;965.17;93.60;;;;;;;;;;4739545;29;20869;-83
2024/01/29 04:58:32;;;;;;;976.83;95.30;;;;;;;;;;4737958;29;20140;-82
2024/01/29 05:01:00;;;;;;;1061.95;104.28;;;;;;;;;;4737416;29;20956;-83
2024/01/29 05:03:27;;;;;;;979.00;95.30;;;;;;;;;;4742114;29;20052;-83
2024/01/29 05:05:54;;;;;;;963.20;92.90;;;;;;;;;;4738573;29;21341;-83
2024/01/29 05:08:21;;;;;;;1069.25;105.53;;;;;;;;;;4740215;29;20670;-83
2024/01/29 05:10:48;;;;;;;1017.72;99.20;;;;;;;;;;4739478;29;20149;-83
2024/01/29 05:13:15;;;;;;;988.90;96.43;;;;;;;;;;4739918;29;20133;-82
2024/01/29 05:15:41;;;;;;;982.50;95.60;;;;;;;;;;4739805;29;20057;-82
2024/01/29 05:18:08;;;;;;;1072.20;106.07;;;;;;;;;;4738152;29;20109;-82
2024/01/29 05:20:35;;;;;;;998.35;98.10;;;;;;;;;;4738300;29;20766;-82
2024/01/29 05:23:05;;;;;;;1069.88;105.75;;;;;;;;;;4738026;29;20049;-82
2024/01/29 05:25:34;;;;;;;1053.40;104.70;;;;;;;;;;4749798;29;21085;-83
2024/01/29 05:28:01;;;;;;;994.85;97.43;;;;;;;;;;4741535;29;20113;-83
2024/01/29 05:30:28;;;;;;;995.25;98.80;;;;;;;;;;4733277;29;20052;-82
2024/01/29 05:32:58;;;;;;;1099.25;110.05;;;;;;;;;;4738113;29;20038;-82
2024/01/29 05:35:25;;;;;;;955.20;93.93;;;;;;;;;;4744869;29;20048;-82
2024/01/29 05:37:51;;;;;;;1061.30;106.68;;;;;;;;;;4742289;29;20918;-83
2024/01/29 05:40:18;;;;;;;1030.20;101.95;;;;;;;;;;4733781;29;20038;-79
2024/01/29 05:42:52;;;;;;;1009.53;99.93;;;;;;;;;;4741299;29;21208;-83
2024/01/29 05:45:22;;;;;;;1015.38;99.20;;;;;;;;;;4737191;29;20093;-83
2024/01/29 05:47:50;;;;;;;1095.00;109.88;;;;;;;;;;4737172;29;20073;-83
2024/01/29 05:50:16;;;;;;;1037.05;102.60;;;;;;;;;;4724704;29;20049;-84
2024/01/29 05:52:44;;;;;;;1010.72;99.95;;;;;;;;;;4738747;29;21544;-83
2024/01/29 05:55:11;;;;;;;984.55;96.75;;;;;;;;;;4743622;29;20064;-83
2024/01/29 05:57:37;;;;;;;987.10;97.53;;;;;;;;;;4751497;29;20041;-83
2024/01/29 06:00:10;;;;;;;956.00;93.43;;;;;;;;;;4741996;29;20099;-83
2024/01/29 06:02:47;;;;;;;1022.05;101.43;;;;;;;;;;4728862;29;20118;-83
2024/01/29 06:05:15;;;;;;;954.53;93.22;;;;;;;;;;4732241;29;20045;-82
2024/01/29 06:07:42;;;;;;;1001.08;98.50;;;;;;;;;;4730775;29;20050;-84
2024/01/29 06:10:10;;;;;;;1071.50;106.22;;;;;;;;;;4734720;29;20072;-84
2024/01/29 06:12:37;;;;;;;957.78;93.60;;;;;;;;;;4735660;29;20716;-84
2024/01/29 06:15:04;;;;;;;977.50;95.28;;;;;;;;;;4737418;29;20061;-86
2024/01/29 06:17:30;;;;;;;892.95;85.70;;;;;;;;;;4738511;29;20507;-87
2024/01/29 06:19:57;;;;;;;945.35;91.97;;;;;;;;;;4733032;29;20053;-86
2024/01/29 06:22:42;;;;;;;914.05;88.10;;;;;;;;;;4741799;29;20052;-87
2024/01/29 06:25:08;;;;;;;946.08;90.97;;;;;;;;;;4743883;29;20551;-88
2024/01/29 06:27:35;;;;;;;956.95;92.45;;;;;;;;;;4743334;29;20410;-87
2024/01/29 06:30:02;;;;;;;938.60;90.78;;;;;;;;;;4740460;29;20261;-87
2024/01/29 06:32:28;;;;;;;924.63;88.80;;;;;;;;;;4743876;29;20048;-87
2024/01/29 06:34:57;;;;;;;970.08;93.90;;;;;;;;;;4753307;29;20042;-86
2024/01/29 06:37:25;;;;;;;986.60;95.72;;;;;;;;;;4746697;29;20058;-83
2024/01/29 06:39:51;;;;;;;972.65;94.80;;;;;;;;;;4737032;29;20054;-83
2024/01/29 06:42:18;;;;;;;1105.10;110.75;;;;;;;;;;4725133;29;20544;-83
2024/01/29 06:44:45;;;;;;;1013.47;100.38;;;;;;;;;;4728426;29;20046;-81
2024/01/29 06:47:12;;;;;;;1024.65;100.70;;;;;;;;;;4729655;29;20052;-82
2024/01/29 06:49:38;;;;;;;1047.53;104.18;;;;;;;;;;4730941;29;20528;-82
2024/01/29 06:52:05;;;;;;;989.40;97.50;;;;;;;;;;4737605;29;20266;-84
2024/01/29 06:54:39;;;;;;;1013.30;101.40;;;;;;;;;;4733076;29;20153;-82
2024/01/29 06:57:06;;;;;;;964.50;94.25;;;;;;;;;;4735357;29;20288;-83
2024/01/29 06:59:36;;;;;;;1004.08;99.45;;;;;;;;;;4730195;29;20056;-82
2024/01/29 07:02:05;;;;;;;987.10;96.75;;;;;;;;;;4732801;29;20054;-84
2024/01/29 07:04:33;;;;;;;937.65;91.05;;;;;;;;;;4736582;29;21203;-84
2024/01/29 07:07:00;;;;;;;1058.55;104.88;;;;;;;;;;4735788;29;21061;-84
2024/01/29 07:09:28;;;;;;;995.97;97.43;;;;;;;;;;4736162;29;20041;-83
2024/01/29 07:11:57;;;;;;;1020.90;99.78;;;;;;;;;;4737659;29;20057;-84
2024/01/29 07:14:24;;;;;;;1039.53;101.63;;;;;;;;;;4741396;29;20060;-83
2024/01/29 07:16:51;;;;;;;1009.72;99.68;;;;;;;;;;4739101;29;20144;-83
2024/01/29 07:19:25;;;;;;;987.72;95.63;;;;;;;;;;4743002;29;20053;-84
2024/01/29 07:21:53;;;;;;;1009.30;97.75;;;;;;;;;;4737772;29;20045;-84
2024/01/29 07:24:19;;;;;;;1047.10;102.63;;;;;;;;;;4736983;29;21063;-83
2024/01/29 07:26:46;;;;;;;1034.00;102.00;;;;;;;;;;4737423;29;20045;-82
2024/01/29 07:29:13;;;;;;;1007.38;99.28;;;;;;;;;;4740623;29;20344;-84
2024/01/29 07:31:40;;;;;;;1021.97;100.53;;;;;;;;;;4740612;29;20041;-82
2024/01/29 07:34:08;;;;;;;952.08;92.20;;;;;;;;;;4743299;29;21109;-83
2024/01/29 07:36:36;;;;;;;867.08;82.82;;;;;;;;;;4743169;29;20184;-83
2024/01/29 07:39:03;;;;;;;894.40;86.68;;;;;;;;;;4748013;29;20080;-84
2024/01/29 07:41:31;;;;;;;916.67;88.85;;;;;;;;;;4745670;29;21048;-84
2024/01/29 07:43:58;;;;;;;871.22;83.68;;;;;;;;;;4744964;29;20064;-84
2024/01/29 07:46:24;;;;;;;946.15;93.75;;;;;;;;;;4750704;29;20152;-84
2024/01/29 07:48:51;;;;;;;955.17;93.65;;;;;;;;;;4752469;29;21165;-84
2024/01/29 07:51:20;;;;;;;905.10;86.72;;;;;;;;;;4751440;29;20049;-83
2024/01/29 07:53:47;;;;;;;947.97;90.95;;;;;;;;;;4753112;29;20065;-83
2024/01/29 07:56:14;;;;;;;1014.50;100.07;;;;;;;;;;4750348;29;20049;-83
2024/01/29 07:58:40;;;;;;;963.00;94.00;;;;;;;;;;4750475;29;20041;-83
2024/01/29 08:01:07;;;;;;;911.47;87.63;;;;;;;;;;4753831;29;20148;-82
2024/01/29 08:03:34;;;;;;;986.97;96.25;;;;;;;;;;4750229;29;20065;-83
2024/01/29 08:06:01;;;;;;;870.08;82.68;;;;;;;;;;4749347;29;20092;-83
2024/01/29 08:08:29;;;;;;;909.08;87.25;;;;;;;;;;4755424;29;20372;-83
2024/01/29 08:10:57;;;;;;;816.00;76.65;;;;;;;;;;4762284;29;20065;-84
2024/01/29 08:13:25;;;;;;;779.08;73.68;;;;;;;;;;4765211;29;20041;-84
2024/01/29 08:15:51;;;;;;;781.08;74.03;;;;;;;;;;4766037;29;20387;-83
2024/01/29 08:18:18;;;;;;;916.38;88.95;;;;;;;;;;4759709;29;20050;-84
2024/01/29 08:20:45;;;;;;;840.42;79.72;;;;;;;;;;4763305;29;20034;-83
2024/01/29 08:23:12;;;;;;;888.08;85.20;;;;;;;;;;4764624;29;21018;-83
2024/01/29 08:25:38;;;;;;;844.22;80.15;;;;;;;;;;4761856;29;21288;-83
2024/01/29 08:28:05;;;;;;;807.78;74.30;;;;;;;;;;4763712;29;20041;-83
2024/01/29 08:30:31;;;;;;;887.35;83.63;;;;;;;;;;4755395;29;20560;-84
2024/01/29 08:32:58;;;;;;;880.55;83.20;;;;;;;;;;4752037;29;20144;-83
2024/01/29 08:35:25;;;;;;;883.15;82.20;;;;;;;;;;4760706;29;20045;-84
2024/01/29 08:37:52;;;;;;;947.50;90.00;;;;;;;;;;4752312;29;20068;-84
2024/01/29 08:40:19;;;;;;;996.35;96.60;;;;;;;;;;4750088;29;21052;-83
2024/01/29 08:42:47;;;;;;;991.95;95.80;;;;;;;;;;4733894;29;20078;-84
2024/01/29 08:45:14;;;;;;;921.85;87.30;;;;;;;;;;4743135;29;21026;-84
2024/01/29 08:47:41;;;;;;;947.50;90.28;;;;;;;;;;4752386;29;20607;-84
2024/01/29 08:50:09;;;;;;;866.13;80.50;;;;;;;;;;4749816;29;20057;-82
2024/01/29 08:52:35;;;;;;;937.33;88.47;;;;;;;;;;4748777;29;20045;-82
2024/01/29 08:55:02;;;;;;;926.30;87.78;;;;;;;;;;4755879;29;20872;-84
2024/01/29 08:57:29;;;;;;;912.92;87.00;;;;;;;;;;4750762;29;20038;-83
2024/01/29 08:59:55;;;;;;;938.10;89.07;;;;;;;;;;4748076;29;20042;-84
2024/01/29 09:02:27;;;;;;;875.65;81.90;;;;;;;;;;4747759;29;20122;-84
2024/01/29 09:04:54;;;;;;;942.55;88.68;;;;;;;;;;4749898;29;20049;-83
2024/01/29 09:07:21;;;;;;;668.20;59.28;;;;;;;;;;4757413;29;20117;-91
2024/01/29 09:09:48;;;;;;;758.50;69.00;;;;;;;;;;4773351;29;20046;-87
2024/01/29 09:12:14;;;;;;;97.28;11.55;;;;;;;;;;4815266;29;20042;-84
2024/01/29 09:14:41;;;;;;;310.95;27.50;;;;;;;;;;4842162;29;20056;-83
2024/01/29 09:17:07;;;;;;;470.10;38.90;;;;;;;;;;4805630;29;20053;-89
2024/01/29 09:19:34;;;;;;;624.15;54.08;;;;;;;;;;4784395;29;20048;-90
2024/01/29 09:22:01;;;;;;;628.97;54.15;;;;;;;;;;4779067;29;20971;-88
2024/01/29 09:24:27;;;;;;;672.25;59.33;;;;;;;;;;4782371;29;20049;-88
2024/01/29 09:26:58;;;;;;;717.35;64.43;;;;;;;;;;4780621;29;20053;-88
2024/01/29 09:29:25;;;;;;;701.83;63.13;;;;;;;;;;4780248;29;20559;-87
2024/01/29 09:31:51;;;;;;;634.72;55.15;;;;;;;;;;4776335;29;20046;-88
2024/01/29 09:34:20;;;;;;;773.90;71.10;;;;;;;;;;4777133;29;20053;-90
2024/01/29 09:36:47;;;;;;;668.10;60.35;;;;;;;;;;4783075;29;20046;-88
2024/01/29 09:39:14;;;;;;;665.95;59.45;;;;;;;;;;4795669;29;20052;-89
2024/01/29 09:41:42;;;;;;;974.35;94.47;;;;;;;;;;4757708;29;20064;-77
2024/01/29 09:44:11;;;;;;;1038.32;102.43;;;;;;;;;;4743583;29;20061;-81
2024/01/29 09:46:41;;;;;;;792.72;73.72;;;;;;;;;;4755700;29;20210;-82
2024/01/29 09:49:08;;;;;;;925.13;89.13;;;;;;;;;;4749779;29;20556;-82
2024/01/29 09:51:35;;;;;;;946.63;90.80;;;;;;;;;;4757899;29;20080;-83
2024/01/29 09:54:02;;;;;;;916.88;87.28;;;;;;;;;;4744855;29;20029;-80
2024/01/29 09:56:30;;;;;;;932.03;89.22;;;;;;;;;;4746594;29;20763;-82
2024/01/29 09:58:57;;;;;;;1056.13;104.88;;;;;;;;;;4742138;29;20048;-83
2024/01/29 10:01:23;;;;;;;911.88;88.03;;;;;;;;;;4741294;29;20177;-80
2024/01/29 10:03:50;;;;;;;966.03;94.03;;;;;;;;;;4742807;29;20045;-82
2024/01/29 10:06:18;;;;;;;1051.55;105.45;;;;;;;;;;4744453;29;20048;-81
2024/01/29 10:08:46;;;;;;;1019.08;100.80;;;;;;;;;;4738015;29;20113;-79
2024/01/29 10:11:13;;;;;;;973.72;94.30;;;;;;;;;;4734923;29;20056;-79
2024/01/29 10:13:41;;;;;;;999.42;96.15;;;;;;;;;;4737721;29;20045;-79
2024/01/29 10:16:08;;;;;;;999.95;97.20;;;;;;;;;;4739045;29;20054;-79
2024/01/29 10:18:36;;;;;;;979.85;94.97;;;;;;;;;;4738281;29;21161;-79
2024/01/29 10:21:05;;;;;;;996.95;96.88;;;;;;;;;;4734291;29;20357;-79
2024/01/29 10:23:32;;;;;;;1050.63;103.35;;;;;;;;;;4734661;29;21303;-79
2024/01/29 10:26:00;;;;;;;974.67;94.70;;;;;;;;;;4736594;29;20839;-80
2024/01/29 10:28:28;;;;;;;1052.15;103.38;;;;;;;;;;4738474;29;20045;-79
2024/01/29 10:30:55;;;;;;;1025.45;100.55;;;;;;;;;;4736385;29;20049;-79
2024/01/29 10:33:23;;;;;;;1046.05;103.30;;;;;;;;;;4735863;29;20041;-79
2024/01/29 10:35:50;;;;;;;993.15;96.47;;;;;;;;;;4737141;29;20940;-80
2024/01/29 10:38:18;;;;;;;1054.22;104.22;;;;;;;;;;4720917;29;20958;-79
2024/01/29 10:40:45;;;;;;;957.58;92.88;;;;;;;;;;4738699;29;20042;-81
2024/01/29 10:43:18;;;;;;;973.75;94.00;;;;;;;;;;4738189;29;20045;-81
2024/01/29 10:45:53;;;;;;;1016.95;98.85;;;;;;;;;;4741262;29;21094;-81
2024/01/29 10:48:21;;;;;;;1011.50;98.45;;;;;;;;;;4747409;29;20867;-81
2024/01/29 10:50:50;;;;;;;1025.95;100.45;;;;;;;;;;4737732;29;20053;-81
2024/01/29 10:53:17;;;;;;;1021.35;100.05;;;;;;;;;;4739104;29;20061;-81
2024/01/29 10:55:45;;;;;;;978.25;94.47;;;;;;;;;;4735248;29;20152;-82
2024/01/29 10:58:15;;;;;;;899.45;85.90;;;;;;;;;;4743664;29;21081;-81
2024/01/29 11:00:43;;;;;;;819.72;76.00;;;;;;;;;;4758301;29;20556;-82
2024/01/29 11:03:11;;;;;;;907.28;86.03;;;;;;;;;;4737865;29;20272;-81
2024/01/29 11:05:39;;;;;;;1037.88;101.88;;;;;;;;;;4738046;29;20102;-81
2024/01/29 11:08:07;;;;;;;869.40;81.80;;;;;;;;;;4745379;29;20038;-81
2024/01/29 11:10:34;;;;;;;901.15;85.10;;;;;;;;;;4728338;29;20077;-83
2024/01/29 11:13:02;;;;;;;981.20;94.90;;;;;;;;;;4725315;29;20046;-81
2024/01/29 11:15:30;;;;;;;985.60;95.40;;;;;;;;;;4732556;29;20089;-81
2024/01/29 11:17:57;;;;;;;927.58;89.45;;;;;;;;;;4737479;29;20038;-81
2024/01/29 11:20:23;;;;;;;982.90;95.45;;;;;;;;;;4741389;29;20064;-81
2024/01/29 11:22:51;;;;;;;986.65;95.55;;;;;;;;;;4738781;29;20072;-81
2024/01/29 11:25:18;;;;;;;1037.95;102.20;;;;;;;;;;4738909;29;20050;-82
2024/01/29 11:27:47;;;;;;;322.30;27.35;;;;;;;;;;4766000;29;20037;-87
2024/01/29 11:30:18;;;;;;;848.25;79.18;;;;;;;;;;4775171;29;20049;-84
2024/01/29 11:32:46;;;;;;;844.85;79.97;;;;;;;;;;4762358;29;20061;-86
2024/01/29 11:35:14;;;;;;;584.80;54.28;;;;;;;;;;4780287;29;20046;-87
2024/01/29 11:37:43;;;;;;;834.13;79.13;;;;;;;;;;4815491;29;20045;-82
2024/01/29 11:40:32;;;;;;;755.95;69.15;;;;;;;;;;4774110;29;20050;-85
2024/01/29 11:42:59;;;;;;;829.78;78.75;;;;;;;;;;4772786;29;20037;-84
2024/01/29 11:45:32;;;;;;;972.38;94.63;;;;;;;;;;4783992;29;21034;-87
2024/01/29 11:48:00;;;;;;;975.35;94.07;;;;;;;;;;4745585;29;21174;-84
2024/01/29 11:50:27;;;;;;;537.17;45.70;;;;;;;;;;4779715;29;20053;-89
2024/01/29 11:52:54;;;;;;;518.85;44.33;;;;;;;;;;4788279;29;20060;-87
2024/01/29 11:55:32;;;;;;;484.42;40.00;;;;;;;;;;4788021;29;20057;-87
2024/01/29 11:57:59;;;;;;;582.70;50.50;;;;;;;;;;4795874;29;20053;-91
2024/01/29 12:00:26;;;;;;;630.70;55.33;;;;;;;;;;4775963;29;20364;-87
2024/01/29 12:02:52;;;;;;;708.72;63.83;;;;;;;;;;4777790;29;20240;-88
2024/01/29 12:05:19;;;;;;;692.03;62.72;;;;;;;;;;4787455;29;21052;-88
2024/01/29 12:07:46;;;;;;;695.92;63.22;;;;;;;;;;4791660;29;20072;-89
2024/01/29 12:10:15;;;;;;;634.42;55.88;;;;;;;;;;4793508;29;20045;-87
2024/01/29 12:12:42;;;;;;;555.10;47.35;;;;;;;;;;4819719;29;20376;-88
2024/01/29 12:15:12;;;;;;;552.70;47.00;;;;;;;;;;4809477;29;20067;-88
2024/01/29 12:17:44;;;;;;;652.45;59.65;;;;;;;;;;4803575;29;20104;-88
2024/01/29 12:20:12;;;;;;;714.38;66.10;;;;;;;;;;4799764;29;20588;-88
2024/01/29 12:22:38;;;;;;;630.28;55.40;;;;;;;;;;4797868;29;20045;-88
2024/01/29 12:25:14;;;;;;;682.00;60.30;;;;;;;;;;4791334;29;20917;-87
2024/01/29 12:27:41;;;;;;;729.95;65.78;;;;;;;;;;4784284;29;20053;-87
2024/01/29 12:30:14;;;;;;;708.05;64.32;;;;;;;;;;4792682;29;20049;-88
2024/01/29 12:32:45;;;;;;;604.83;51.83;;;;;;;;;;4780013;29;20042;-89
2024/01/29 12:35:25;;;;;;;609.47;52.28;;;;;;;;;;4787807;29;20049;-88
2024/01/29 12:38:05;;;;;;;735.47;68.13;;;;;;;;;;4781592;29;20041;-87
2024/01/29 12:40:32;;;;;;;369.50;31.52;;;;;;;;;;4790796;29;20057;-88
2024/01/29 12:43:02;;;;;;;303.77;26.02;;;;;;;;;;4815935;29;20830;-89
2024/01/29 12:45:29;;;;;;;96.22;10.55;;;;;;;;;;4815858;29;20783;-84
2024/01/29 12:48:08;;;;;;;945.72;91.63;;;;;;;;;;4793194;29;20140;-77
2024/01/29 12:50:37;;;;;;;266.10;23.15;;;;;;;;;;4824856;29;20057;-90
2024/01/29 12:53:04;;;;;;;211.77;18.73;;;;;;;;;;4800904;29;20048;-87
2024/01/29 12:55:31;;;;;;;395.55;32.70;;;;;;;;;;4797456;29;20431;-88
2024/01/29 12:57:57;;;;;;;448.85;37.42;;;;;;;;;;4814250;29;20140;-89
2024/01/29 13:00:24;;;;;;;556.88;47.13;;;;;;;;;;4819291;29;20056;-88
2024/01/29 13:02:51;;;;;;;284.45;24.17;;;;;;;;;;4815937;29;20054;-88
2024/01/29 13:05:18;;;;;;;983.35;95.80;;;;;;;;;;4774671;29;20157;-86
2024/01/29 13:07:45;;;;;;;811.30;75.45;;;;;;;;;;4798393;29;20045;-90
2024/01/29 13:10:12;;;;;;;1000.10;96.45;;;;;;;;;;4759461;29;20122;-83
2024/01/29 13:12:39;;;;;;;971.88;93.43;;;;;;;;;;4756276;29;20045;-83
2024/01/29 13:15:06;;;;;;;531.72;44.70;;;;;;;;;;4797057;29;20041;-89
2024/01/29 13:17:33;;;;;;;793.85;73.65;;;;;;;;;;4788502;29;20160;-89
2024/01/29 13:19:59;;;;;;;875.75;82.57;;;;;;;;;;4776194;29;20147;-86
2024/01/29 13:22:28;;;;;;;893.00;85.25;;;;;;;;;;4760501;29;20257;-84
2024/01/29 13:24:54;;;;;;;1047.65;103.25;;;;;;;;;;4752665;29;20044;-85
2024/01/29 13:27:21;;;;;;;936.88;91.18;;;;;;;;;;4762312;29;20100;-85
2024/01/29 13:29:47;;;;;;;1012.92;98.78;;;;;;;;;;4752775;29;20045;-87
2024/01/29 13:32:14;;;;;;;901.25;86.32;;;;;;;;;;4751492;29;20156;-85
2024/01/29 13:34:41;;;;;;;886.55;83.57;;;;;;;;;;4755953;29;20992;-88
2024/01/29 13:37:08;;;;;;;960.25;92.35;;;;;;;;;;4769450;29;20149;-86
2024/01/29 13:39:34;;;;;;;978.10;94.45;;;;;;;;;;4757524;29;20037;-85
2024/01/29 13:42:01;;;;;;;865.65;82.13;;;;;;;;;;4762117;29;20301;-88
2024/01/29 13:44:28;;;;;;;726.42;65.30;;;;;;;;;;4771784;29;20072;-86
2024/01/29 13:46:55;;;;;;;956.88;92.68;;;;;;;;;;4751322;29;20053;-87
2024/01/29 13:49:23;;;;;;;951.90;91.45;;;;;;;;;;4755737;29;21041;-76
2024/01/29 13:51:50;;;;;;;960.72;92.07;;;;;;;;;;4756704;29;20055;-76
2024/01/29 13:54:18;;;;;;;1060.43;104.47;;;;;;;;;;4757012;29;20048;-77
2024/01/29 13:56:44;;;;;;;942.88;90.55;;;;;;;;;;4744374;29;20038;-77
2024/01/29 13:59:11;;;;;;;845.78;79.07;;;;;;;;;;4751631;29;20049;-76
2024/01/29 14:01:38;;;;;;;981.35;95.07;;;;;;;;;;4750453;29;20061;-77